Time;durP1;ratioP1;P1;durP2;ratioP2;P2;SDS_P1;SDS_P2;PMS_P1;PMS_P2;Temp;Humidity;BMP_temperature;BMP_pressure;BME280_temperature;BME280_humidity;BME280_pressure;Samples;Min_cycle;Max_cycle;Signal;HPM_P1;HPM_P2
2021/05/06 00:00:04;;;;;;;0.50;0.20;;;;;;;4.72;68.51;97700.53;1747509;80;21249;-71
2021/05/06 00:03:25;;;;;;;0.80;0.30;;;;;;;4.75;68.88;97686.61;1831184;77;22747;-70
2021/05/06 00:33:27;;;;;;;1.15;0.37;;;;;;;4.54;69.67;97696.37;1770742;80;21049;-72
2021/05/06 00:35:54;;;;;;;0.20;0.20;;;;;;;4.53;69.75;97701.17;1772932;80;21517;-71
2021/05/06 00:38:25;;;;;;;0.93;0.30;;;;;;;4.54;69.80;97707.56;1764344;80;21137;-71
2021/05/06 00:54:59;;;;;;;1.10;0.30;;;;;;;4.54;70.24;97712.73;1802855;77;21205;-71
2021/05/06 01:02:50;;;;;;;0.62;0.30;;;;;;;4.49;70.49;97712.98;1779510;78;22943;-71
2021/05/06 01:07:46;;;;;;;0.45;0.30;;;;;;;4.42;71.02;97713.39;1754718;80;21166;-71
2021/05/06 01:12:52;;;;;;;0.23;0.20;;;;;;;4.38;71.07;97720.94;1826614;77;22432;-71
2021/05/06 01:15:19;;;;;;;0.28;0.20;;;;;;;4.33;70.98;97724.23;1801696;78;21226;-71
2021/05/06 01:17:46;;;;;;;0.50;0.20;;;;;;;4.33;70.93;97730.22;1796224;78;21256;-71
2021/05/06 01:20:15;;;;;;;0.37;0.20;;;;;;;4.37;70.96;97736.05;1800372;78;21000;-70
2021/05/06 01:22:42;;;;;;;0.75;0.28;;;;;;;4.40;71.06;97734.63;1802174;78;21028;-70
2021/05/06 01:25:11;;;;;;;0.42;0.20;;;;;;;4.39;71.16;97741.98;1802488;78;21599;-70
2021/05/06 01:30:33;;;;;;;0.40;0.23;;;;;;;4.44;71.32;97733.06;1835799;76;22430;-71
2021/05/06 01:33:14;;;;;;;0.75;0.20;;;;;;;4.38;71.23;97740.32;1814420;78;20986;-72
2021/05/06 02:00:06;;;;;;;0.25;0.25;;;;;;;4.15;71.63;97741.09;1768253;79;21046;-70
2021/05/06 02:02:30;;;;;;;0.47;0.10;;;;;;;4.11;71.84;97753.77;1762597;79;20998;-71
2021/05/06 02:04:57;;;;;;;;;;;;;;;4.08;71.80;97746.19;1773020;80;21134;-71
2021/05/06 02:07:25;;;;;;;0.10;0.10;;;;;;;4.06;71.95;97760.92;1756358;80;20278;-70
2021/05/06 02:09:52;;;;;;;0.13;0.13;;;;;;;4.03;71.97;97768.83;1755405;80;21914;-70
2021/05/06 02:12:20;;;;;;;0.10;0.10;;;;;;;4.01;71.99;97758.59;1764498;79;21236;-70
2021/05/06 02:14:55;;;;;;;;;;;;;;;3.99;71.96;97764.75;1764761;79;21000;-70
2021/05/06 02:17:19;;;;;;;0.40;0.20;;;;;;;3.97;72.16;97760.12;1760884;80;20278;-70
2021/05/06 02:19:48;;;;;;;0.40;0.20;;;;;;;3.94;72.12;97756.41;1766470;80;21690;-70
2021/05/06 02:22:18;;;;;;;0.20;0.20;;;;;;;3.94;72.07;97757.70;1764125;80;22166;-70
2021/05/06 02:24:46;;;;;;;0.20;0.20;;;;;;;3.91;72.13;97756.56;1756026;80;21241;-70
2021/05/06 02:27:14;;;;;;;0.20;0.10;;;;;;;3.88;72.21;97761.89;1761187;80;21245;-70
2021/05/06 02:29:41;;;;;;;0.10;0.10;;;;;;;3.85;72.24;97756.42;1761708;79;21159;-70
2021/05/06 02:32:08;;;;;;;0.20;0.20;;;;;;;3.84;72.46;97759.08;1761606;80;21176;-70
2021/05/06 02:34:36;;;;;;;0.30;0.17;;;;;;;3.81;72.48;97758.34;1765966;80;25342;-70
2021/05/06 02:37:03;;;;;;;;;;;;;;;3.81;72.45;97761.38;1760561;80;21253;-70
2021/05/06 02:39:30;;;;;;;;;;;;;;;3.79;72.59;97767.91;1760505;79;20145;-70
2021/05/06 02:41:57;;;;;;;2.10;0.25;;;;;;;3.78;72.90;97767.53;1761003;80;20235;-70
2021/05/06 02:44:24;;;;;;;0.50;0.23;;;;;;;3.76;72.64;97779.67;1765037;80;21592;-70
2021/05/06 02:46:52;;;;;;;3.85;0.20;;;;;;;3.74;72.75;97778.91;1763921;79;21198;-71
2021/05/06 02:49:21;;;;;;;0.80;0.30;;;;;;;3.72;72.80;97780.73;1755586;80;21678;-70
2021/05/06 02:51:52;;;;;;;1.25;0.20;;;;;;;3.71;72.87;97784.23;1762795;80;21597;-71
2021/05/06 02:54:17;;;;;;;0.47;0.23;;;;;;;3.72;73.02;97791.05;1763335;80;22946;-71
2021/05/06 02:57:03;;;;;;;1.15;0.40;;;;;;;3.70;72.86;97770.95;1761612;80;21755;-71
2021/05/06 03:03:33;;;;;;;0.90;0.30;;;;;;;3.77;73.29;97795.53;1827507;75;22847;-70
2021/05/06 03:05:57;;;;;;;0.20;0.15;;;;;;;3.72;73.28;97785.89;1801752;78;20961;-70
2021/05/06 03:08:34;;;;;;;0.82;0.28;;;;;;;3.73;73.29;97792.74;1805468;77;21271;-70
2021/05/06 03:24:25;;;;;;;1.10;0.55;;;;;;;3.71;73.64;97804.05;1806527;78;28755;-71
2021/05/06 03:26:51;;;;;;;0.85;0.47;;;;;;;3.68;73.66;97786.97;1778544;78;21611;-71
2021/05/06 03:29:27;;;;;;;0.90;0.50;;;;;;;3.67;73.71;97802.09;1802715;77;21223;-70
2021/05/06 03:46:06;;;;;;;3.10;0.95;;;;;;;3.75;74.05;97820.61;1799632;78;22438;-70
2021/05/06 03:48:40;;;;;;;2.35;0.90;;;;;;;3.69;74.47;97805.41;1767907;80;21004;-71
2021/05/06 04:18:10;;;;;;;4.58;1.98;;;;;;;3.71;74.62;97848.77;1733297;81;21250;-69
2021/05/06 04:31:08;;;;;;;4.35;1.15;;;;;;;3.75;74.86;97872.23;1730927;81;21071;-69
2021/05/06 04:36:18;;;;;;;4.97;1.90;;;;;;;3.78;74.75;97870.80;1727863;81;21163;-70
2021/05/06 04:38:42;;;;;;;4.67;1.30;;;;;;;3.78;74.93;97872.08;1731069;80;21043;-69
2021/05/06 04:54:47;;;;;;;6.50;2.05;;;;;;;4.18;74.92;97883.00;1732837;81;22191;-70
2021/05/06 05:05:01;;;;;;;5.78;1.12;;;;;;;4.26;74.99;97897.66;1672584;83;21654;-69
2021/05/06 05:07:37;;;;;;;4.45;1.57;;;;;;;4.29;74.85;97893.25;1670774;84;21752;-69
2021/05/06 05:13:05;;;;;;;3.17;1.40;;;;;;;4.41;74.95;97882.27;1766210;78;22359;-68
2021/05/06 05:18:27;;;;;;;5.25;1.02;;;;;;;4.46;74.90;97885.47;1734871;80;21539;-68
2021/05/06 05:25:11;;;;;;;2.37;1.02;;;;;;;4.57;74.96;97913.34;1796778;78;23099;-68
2021/05/06 05:27:39;;;;;;;5.42;1.37;;;;;;;4.58;74.95;97910.66;1778030;80;21764;-69
2021/05/06 05:30:07;;;;;;;4.72;1.45;;;;;;;4.64;74.87;97923.27;1768536;80;22390;-69
2021/05/06 05:32:34;;;;;;;3.83;1.30;;;;;;;4.71;74.89;97921.21;1770431;80;21068;-67
2021/05/06 05:35:08;;;;;;;5.28;1.45;;;;;;;4.72;74.74;97911.23;1772089;80;21180;-68
2021/05/06 05:37:37;;;;;;;4.28;1.47;;;;;;;4.74;74.75;97922.80;1770126;80;21058;-67
2021/05/06 05:56:13;;;;;;;3.15;1.30;;;;;;;4.60;74.80;97947.62;1768748;80;21205;-69
2021/05/06 05:58:40;;;;;;;4.03;1.65;;;;;;;4.60;74.69;97939.86;1777415;79;22453;-69
2021/05/06 06:01:07;;;;;;;2.85;1.10;;;;;;;4.59;74.71;97947.22;1769940;79;21233;-69
2021/05/06 06:03:34;;;;;;;7.42;1.85;;;;;;;4.58;74.67;97949.44;1774184;80;21199;-69
2021/05/06 06:06:02;;;;;;;4.40;1.35;;;;;;;4.58;74.79;97954.60;1769506;79;21167;-69
2021/05/06 06:08:31;;;;;;;5.33;1.57;;;;;;;4.61;74.76;97941.52;1771585;79;21198;-69
2021/05/06 06:10:59;;;;;;;5.47;1.47;;;;;;;4.67;74.69;97950.25;1772374;80;21292;-68
2021/05/06 06:13:27;;;;;;;7.47;2.10;;;;;;;4.73;74.65;97954.73;1771508;79;21215;-68
2021/05/06 06:18:53;;;;;;;3.27;1.50;;;;;;;4.84;74.58;97939.48;1828517;77;22327;-68
2021/05/06 06:23:40;;;;;;;5.12;1.75;;;;;;;4.92;74.66;97947.22;1770617;78;22769;-67
2021/05/06 06:26:08;;;;;;;4.87;2.27;;;;;;;5.02;74.66;97954.05;1739496;81;21088;-68
2021/05/06 06:28:40;;;;;;;;;;;;;;;5.15;74.69;97955.08;1746610;80;21290;-67
2021/05/06 06:33:47;;;;;;;7.58;2.02;;;;;;;5.19;74.29;97955.73;1739214;80;21172;-67
2021/05/06 06:36:17;;;;;;;8.48;2.12;;;;;;;5.23;74.12;97959.82;1740429;80;21161;-68
2021/05/06 06:38:49;;;;;;;6.28;1.90;;;;;;;5.27;74.34;97963.10;1739711;81;21681;-68
2021/05/06 06:41:17;;;;;;;6.72;2.00;;;;;;;5.42;74.33;97958.84;1736103;81;21204;-69
2021/05/06 06:43:47;;;;;;;5.47;1.50;;;;;;;5.48;73.85;97966.27;1703801;81;21072;-69
2021/05/06 06:46:13;;;;;;;8.30;1.98;;;;;;;5.57;74.10;97969.20;1741565;81;21613;-69
2021/05/06 06:48:40;;;;;;;7.67;2.37;;;;;;;5.69;74.04;97962.50;1740331;80;21234;-68
2021/05/06 06:51:07;;;;;;;6.85;2.17;;;;;;;5.77;73.98;97967.23;1746008;81;21210;-68
2021/05/06 06:53:34;;;;;;;5.75;2.20;;;;;;;5.86;73.98;97966.75;1740117;81;21255;-69
2021/05/06 06:56:02;;;;;;;6.78;2.50;;;;;;;5.94;73.93;97980.13;1745699;80;21586;-69
2021/05/06 06:58:29;;;;;;;4.65;1.40;;;;;;;5.97;73.66;97973.48;1712470;81;21236;-69
2021/05/06 07:00:57;;;;;;;;;;;;;;;6.10;73.67;97972.78;1748507;81;21131;-69
2021/05/06 07:03:25;;;;;;;6.17;1.90;;;;;;;6.16;73.31;97976.31;1743748;81;20543;-69
2021/05/06 07:05:52;;;;;;;;;;;;;;;6.19;73.53;97970.95;1744731;80;21531;-69
2021/05/06 07:08:31;;;;;;;6.53;2.65;;;;;;;6.17;73.24;97983.18;1744116;81;20640;-69
2021/05/06 07:11:01;;;;;;;9.03;2.25;;;;;;;6.20;73.50;97985.59;1741537;81;21202;-69
2021/05/06 07:13:32;;;;;;;5.70;1.92;;;;;;;6.35;73.44;97995.53;1744943;80;21694;-70
2021/05/06 07:16:06;;;;;;;9.13;2.10;;;;;;;6.34;73.08;97993.41;1737219;80;21658;-70
2021/05/06 07:18:35;;;;;;;5.83;1.82;;;;;;;6.29;73.07;97990.24;1740810;80;21266;-69
2021/05/06 07:21:05;;;;;;;5.03;1.60;;;;;;;6.37;73.04;97993.23;1742384;81;21206;-68
2021/05/06 07:23:34;;;;;;;7.67;2.10;;;;;;;6.49;73.00;97992.51;1737026;81;21033;-68
2021/05/06 07:26:03;;;;;;;5.40;2.00;;;;;;;6.64;72.90;97992.56;1740908;80;21193;-68
2021/05/06 07:28:40;;;;;;;8.58;2.35;;;;;;;6.75;72.63;97992.77;1739679;80;21617;-68
2021/05/06 07:31:10;;;;;;;6.25;1.50;;;;;;;6.85;72.60;97992.56;1741836;80;21292;-69
2021/05/06 07:33:39;;;;;;;7.22;2.00;;;;;;;6.88;72.39;98004.05;1735975;80;21273;-68
2021/05/06 07:36:06;;;;;;;5.72;1.45;;;;;;;6.95;72.42;98000.19;1738128;81;21218;-69
2021/05/06 07:38:33;;;;;;;9.08;2.02;;;;;;;7.04;72.02;98003.16;1745860;81;21735;-69
2021/05/06 07:41:00;;;;;;;8.23;2.25;;;;;;;7.11;71.99;97999.25;1740593;81;21583;-69
2021/05/06 07:43:30;;;;;;;5.87;1.80;;;;;;;7.08;71.49;98007.22;1744176;81;21221;-68
2021/05/06 07:46:01;;;;;;;6.12;2.10;;;;;;;7.15;71.66;98003.34;1741080;80;21739;-68
2021/05/06 07:48:29;;;;;;;4.33;1.82;;;;;;;7.35;71.96;98010.73;1742191;81;21024;-69
2021/05/06 07:50:57;;;;;;;5.70;1.60;;;;;;;7.59;71.58;98015.36;1739866;80;21190;-67
2021/05/06 07:53:27;;;;;;;6.08;1.90;;;;;;;7.69;71.14;98017.73;1743796;81;21179;-68
2021/05/06 07:55:55;;;;;;;5.42;1.42;;;;;;;7.57;70.44;98017.21;1717836;81;21167;-67
2021/05/06 07:58:22;;;;;;;3.87;1.85;;;;;;;7.40;70.40;98019.08;1734985;81;21192;-69
2021/05/06 08:00:50;;;;;;;7.37;2.02;;;;;;;7.27;70.67;98018.63;1736021;80;21167;-68
2021/05/06 08:03:17;;;;;;;5.35;1.98;;;;;;;7.14;70.89;98025.02;1735503;81;21202;-69
2021/05/06 08:05:44;;;;;;;6.87;1.82;;;;;;;7.09;70.67;98019.29;1734153;80;21621;-69
2021/05/06 08:08:11;;;;;;;6.67;1.70;;;;;;;6.97;70.52;98025.19;1739759;81;22621;-69
2021/05/06 08:10:38;;;;;;;7.37;2.02;;;;;;;6.77;70.44;98019.42;1740259;81;21234;-69
2021/05/06 08:13:05;;;;;;;4.28;1.52;;;;;;;6.74;70.48;98045.55;1738723;81;21136;-69
2021/05/06 08:15:32;;;;;;;4.67;1.45;;;;;;;6.62;70.28;98051.45;1744980;80;21053;-69
2021/05/06 08:18:00;;;;;;;5.22;1.85;;;;;;;6.51;70.10;98063.73;1739389;81;21092;-69
2021/05/06 08:20:27;;;;;;;11.25;2.20;;;;;;;6.43;70.15;98054.27;1739438;80;22109;-69
2021/05/06 08:22:56;;;;;;;6.12;1.92;;;;;;;6.36;70.22;98068.05;1742916;81;21248;-71
2021/05/06 08:25:24;;;;;;;9.65;2.50;;;;;;;6.36;70.31;98058.97;1740108;81;21211;-70
2021/05/06 08:27:52;;;;;;;8.23;3.42;;;;;;;6.45;70.46;98076.59;1745242;81;20993;-70
2021/05/06 08:30:22;;;;;;;7.60;3.20;;;;;;;6.55;70.20;98080.78;1737952;80;21216;-70
2021/05/06 08:32:51;;;;;;;4.03;1.50;;;;;;;6.70;70.15;98077.31;1719925;81;21235;-70
2021/05/06 08:35:20;;;;;;;9.83;2.10;;;;;;;6.73;69.34;98060.75;1744232;80;21245;-70
2021/05/06 08:37:49;;;;;;;7.70;1.98;;;;;;;6.67;69.58;98089.64;1744672;80;21590;-70
2021/05/06 08:40:16;;;;;;;7.12;1.60;;;;;;;6.67;69.72;98093.53;1746906;81;21610;-69
2021/05/06 08:42:45;;;;;;;6.25;1.70;;;;;;;6.88;69.85;98079.30;1736568;81;22251;-69
2021/05/06 08:45:13;;;;;;;8.20;3.55;;;;;;;6.90;69.15;98094.31;1712894;81;21972;-70
2021/05/06 08:47:44;;;;;;;5.28;1.90;;;;;;;6.99;69.63;98107.69;1739647;80;21244;-69
2021/05/06 08:50:17;;;;;;;5.67;1.60;;;;;;;7.08;68.68;98100.65;1735130;80;21774;-69
2021/05/06 08:52:50;;;;;;;9.38;2.08;;;;;;;7.07;69.13;98107.61;1731629;81;21566;-70
2021/05/06 08:55:18;;;;;;;6.92;1.95;;;;;;;7.23;69.33;98110.14;1738243;81;21202;-69
2021/05/06 08:57:45;;;;;;;4.87;1.75;;;;;;;7.42;69.22;98106.43;1739191;80;23595;-69
2021/05/06 09:00:14;;;;;;;6.00;1.47;;;;;;;7.47;68.68;98114.78;1742568;80;21150;-69
2021/05/06 09:02:48;;;;;;;7.08;1.80;;;;;;;7.42;68.80;98127.20;1693186;82;21230;-69
2021/05/06 09:05:16;;;;;;;6.33;1.62;;;;;;;7.40;68.81;98125.55;1693098;83;21231;-68
2021/05/06 09:07:46;;;;;;;5.45;1.47;;;;;;;7.37;68.16;98120.53;1693042;83;21616;-68
2021/05/06 09:10:40;;;;;;;8.08;2.00;;;;;;;7.36;68.40;98112.83;1682458;83;22274;-68
2021/05/06 09:13:28;;;;;;;9.45;2.12;;;;;;;7.32;68.20;98127.77;1689508;83;21092;-70
2021/05/06 09:15:56;;;;;;;6.20;1.87;;;;;;;7.44;68.24;98130.55;1675389;83;21196;-69
2021/05/06 09:18:42;;;;;;;5.03;1.80;;;;;;;7.54;67.94;98136.88;1685070;83;21674;-69
2021/05/06 09:21:27;;;;;;;17.33;2.90;;;;;;;7.66;68.20;98142.62;1686188;83;21287;-69
2021/05/06 09:24:11;;;;;;;2.95;1.60;;;;;;;7.74;68.03;98144.29;1680741;83;21332;-68
2021/05/06 09:26:41;;;;;;;6.50;1.52;;;;;;;7.79;67.13;98139.66;1682073;84;21243;-70
2021/05/06 09:29:11;;;;;;;5.25;1.75;;;;;;;7.69;67.70;98163.21;1690397;84;21198;-68
2021/05/06 09:31:42;;;;;;;6.80;1.55;;;;;;;7.81;68.00;98158.59;1683273;84;21796;-69
2021/05/06 09:34:12;;;;;;;4.25;1.50;;;;;;;8.05;67.87;98150.20;1689629;84;21249;-69
2021/05/06 09:36:43;;;;;;;7.87;2.50;;;;;;;8.14;67.56;98147.02;1682768;83;22098;-69
2021/05/06 09:39:10;;;;;;;8.15;2.00;;;;;;;8.15;67.45;98161.71;1680161;83;21159;-69
2021/05/06 09:41:38;;;;;;;6.62;2.00;;;;;;;8.16;67.04;98165.14;1687052;82;21062;-66
2021/05/06 09:44:10;;;;;;;;;;;;;;;8.02;66.93;98165.99;1687956;83;21290;-69
2021/05/06 09:49:24;;;;;;;8.38;1.90;;;;;;;7.77;66.81;98166.66;1752663;80;23056;-68
2021/05/06 09:51:58;;;;;;;7.30;1.85;;;;;;;7.65;66.97;98179.92;1743150;80;21534;-68
2021/05/06 09:54:31;;;;;;;9.15;1.87;;;;;;;7.57;66.55;98162.66;1749568;80;21264;-68
2021/05/06 09:57:05;;;;;;;7.10;1.90;;;;;;;7.44;66.05;98174.70;1713208;81;21658;-70
2021/05/06 10:02:17;;;;;;;9.50;2.20;;;;;;;7.48;66.97;98187.42;1798576;75;23234;-68
2021/05/06 10:04:48;;;;;;;4.97;1.90;;;;;;;7.60;66.79;98194.94;1770716;80;21036;-69
2021/05/06 10:07:23;;;;;;;7.30;1.82;;;;;;;7.70;66.35;98188.28;1776340;80;21215;-68
2021/05/06 10:10:18;;;;;;;5.65;1.82;;;;;;;7.84;66.14;98194.78;1830856;77;22620;-68
2021/05/06 10:12:46;;;;;;;3.47;1.75;;;;;;;7.91;66.39;98202.20;1804117;78;21159;-68
2021/05/06 10:15:14;;;;;;;7.53;1.85;;;;;;;8.08;66.11;98195.50;1793704;77;21144;-69
2021/05/06 10:17:42;;;;;;;24.98;3.98;;;;;;;8.10;65.78;98194.95;1800609;78;21091;-69
2021/05/06 10:20:10;;;;;;;;;;;;;;;8.21;66.03;98197.73;1803500;78;21066;-69
2021/05/06 10:22:40;;;;;;;5.70;2.10;;;;;;;8.37;65.60;98196.76;1799346;78;20311;-69
2021/05/06 10:25:09;;;;;;;6.60;1.90;;;;;;;8.53;65.97;98202.70;1722089;80;21061;-67
2021/05/06 10:27:40;;;;;;;6.97;1.90;;;;;;;8.68;65.51;98206.95;1770498;79;21191;-69
2021/05/06 10:30:08;;;;;;;38.05;2.80;;;;;;;8.80;65.43;98197.99;1749234;80;22465;-69
2021/05/06 10:32:38;;;;;;;5.08;1.98;;;;;;;8.85;65.17;98202.41;1741070;80;21005;-69
2021/05/06 10:35:10;;;;;;;3.50;1.35;;;;;;;8.85;64.47;98207.61;1760315;80;21725;-69
2021/05/06 10:37:55;;;;;;;13.78;3.10;;;;;;;8.86;64.59;98222.31;1796120;78;22793;-69
2021/05/06 10:40:25;;;;;;;;;;;;;;;8.85;65.05;98214.98;1770479;80;21670;-69
2021/05/06 10:42:54;;;;;;;7.35;2.08;;;;;;;8.83;64.20;98212.11;1765194;78;21302;-69
2021/05/06 10:45:29;;;;;;;6.70;1.85;;;;;;;8.73;64.46;98230.89;1765119;80;21104;-69
2021/05/06 10:47:57;;;;;;;13.10;2.05;;;;;;;8.67;64.07;98223.48;1761924;80;21021;-68
2021/05/06 10:50:39;;;;;;;;;;;;;;;8.54;64.56;98238.18;1775205;79;21659;-69
2021/05/06 10:53:08;;;;;;;8.80;2.00;;;;;;;8.54;64.57;98232.98;1776325;79;20127;-68
2021/05/06 10:55:56;;;;;;;8.28;2.45;;;;;;;8.59;64.72;98236.12;1764831;80;21198;-68
2021/05/06 10:58:30;;;;;;;11.25;2.00;;;;;;;8.68;64.60;98248.58;1768877;78;22464;-68
2021/05/06 11:01:09;;;;;;;7.20;1.85;;;;;;;8.59;64.06;98238.73;1765249;80;21191;-68
2021/05/06 11:03:37;;;;;;;5.90;1.57;;;;;;;8.52;64.05;98234.86;1772756;78;21263;-68
2021/05/06 11:06:05;;;;;;;6.92;1.67;;;;;;;8.42;63.94;98250.66;1766591;80;21180;-69
2021/05/06 11:08:35;;;;;;;8.25;1.95;;;;;;;8.38;64.01;98255.66;1770325;78;21248;-69
2021/05/06 11:11:10;;;;;;;5.45;1.70;;;;;;;8.38;64.10;98260.86;1772703;79;21151;-67
2021/05/06 11:14:06;;;;;;;5.80;1.77;;;;;;;8.37;64.18;98265.67;1768376;80;21546;-68
2021/05/06 11:16:35;;;;;;;11.40;1.65;;;;;;;8.34;64.14;98280.17;1774337;80;21570;-67
2021/05/06 11:19:04;;;;;;;4.37;1.62;;;;;;;8.22;63.87;98279.16;1768386;79;21168;-67
2021/05/06 11:21:35;;;;;;;4.65;1.85;;;;;;;8.17;64.05;98278.13;1768068;79;21206;-67
2021/05/06 11:24:21;;;;;;;8.30;1.85;;;;;;;8.21;64.13;98267.92;1774225;79;21817;-68
2021/05/06 11:27:15;;;;;;;8.88;1.92;;;;;;;8.34;64.18;98271.06;1771180;79;21219;-68
2021/05/06 11:29:43;;;;;;;7.65;2.58;;;;;;;8.48;64.04;98267.18;1777818;80;21028;-68
2021/05/06 11:32:30;;;;;;;4.85;1.60;;;;;;;8.81;64.24;98273.82;1774534;80;21057;-68
2021/05/06 11:34:59;;;;;;;5.75;1.92;;;;;;;9.15;63.70;98265.52;1762844;80;21617;-68
2021/05/06 11:37:29;;;;;;;6.95;2.33;;;;;;;9.46;63.98;98260.91;1778384;78;21652;-68
2021/05/06 11:40:16;;;;;;;5.83;1.60;;;;;;;9.71;63.51;98264.50;1749766;80;21024;-67
2021/05/06 11:43:03;;;;;;;7.70;1.60;;;;;;;9.82;63.25;98278.95;1777693;80;21157;-69
2021/05/06 11:45:34;;;;;;;3.90;1.40;;;;;;;9.92;63.00;98264.38;1705462;83;21602;-68
2021/05/06 11:48:01;;;;;;;5.78;1.85;;;;;;;9.87;62.51;98274.27;1702002;82;21270;-68
2021/05/06 11:50:32;;;;;;;10.53;2.02;;;;;;;9.92;62.79;98278.71;1697121;81;21077;-69
2021/05/06 11:53:02;;;;;;;7.00;1.67;;;;;;;10.05;62.80;98266.52;1701691;82;20965;-68
2021/05/06 11:55:40;;;;;;;15.32;2.35;;;;;;;10.26;62.71;98262.89;1702703;82;21260;-70
2021/05/06 11:58:09;;;;;;;5.67;2.02;;;;;;;10.35;62.44;98260.14;1698592;83;21183;-68
2021/05/06 12:03:20;;;;;;;7.95;2.20;;;;;;;10.56;62.53;98262.18;1829054;77;23626;-68
2021/05/06 12:05:59;;;;;;;6.65;2.08;;;;;;;10.66;62.48;98256.69;1800557;78;21036;-68
2021/05/06 12:08:44;;;;;;;4.12;1.60;;;;;;;10.71;62.31;98244.14;1768170;78;21194;-69
2021/05/06 12:11:13;;;;;;;9.65;1.85;;;;;;;10.76;62.16;98239.44;1800010;78;20957;-68
2021/05/06 12:13:51;;;;;;;7.00;1.55;;;;;;;10.62;61.06;98229.97;1802017;78;20977;-68
2021/05/06 12:16:22;;;;;;;16.48;1.80;;;;;;;10.37;61.14;98238.70;1802915;77;21645;-68
2021/05/06 12:19:02;;;;;;;4.75;1.47;;;;;;;10.14;61.06;98252.45;1796324;78;20997;-69
2021/05/06 12:21:35;;;;;;;16.48;1.65;;;;;;;9.90;60.67;98233.66;1792466;78;21182;-69
2021/05/06 12:24:41;;;;;;;8.90;1.85;;;;;;;9.63;59.70;98235.89;1839061;76;22690;-68
2021/05/06 12:27:27;;;;;;;10.85;2.08;;;;;;;9.41;59.89;98261.23;1800331;79;21005;-69
2021/05/06 12:30:03;;;;;;;2.67;1.10;;;;;;;9.19;58.79;98308.67;1742852;82;21215;-68
2021/05/06 12:32:35;;;;;;;4.28;1.47;;;;;;;8.63;59.75;98290.97;1769707;79;21031;-68
2021/05/06 12:35:03;;;;;;;5.45;1.35;;;;;;;8.30;59.86;98301.63;1771153;79;21187;-69
2021/05/06 12:37:32;;;;;;;2.35;0.98;;;;;;;8.07;60.48;98300.42;1763597;80;21106;-69
2021/05/06 12:39:59;;;;;;;6.15;1.57;;;;;;;8.10;60.73;98304.61;1770773;80;21662;-69
2021/05/06 12:42:34;;;;;;;4.42;1.20;;;;;;;8.19;60.62;98299.67;1738241;82;24449;-69
2021/05/06 12:45:05;;;;;;;6.62;1.67;;;;;;;8.29;60.96;98297.38;1734351;81;22602;-70
2021/05/06 12:47:35;;;;;;;5.33;1.55;;;;;;;8.58;60.87;98304.72;1733920;81;20970;-69
2021/05/06 12:50:20;;;;;;;6.40;1.60;;;;;;;8.78;61.16;98289.63;1734424;80;21046;-69
2021/05/06 12:52:53;;;;;;;3.58;1.57;;;;;;;9.04;61.45;98291.88;1734800;81;20953;-69
2021/05/06 12:55:26;;;;;;;4.28;1.40;;;;;;;9.28;61.34;98304.64;1733379;81;22176;-69
2021/05/06 12:58:23;;;;;;;7.30;1.90;;;;;;;9.38;60.96;98294.44;1737498;80;21092;-69
2021/05/06 13:00:59;;;;;;;4.42;1.90;;;;;;;9.43;61.09;98298.06;1732633;82;20973;-69
2021/05/06 13:03:34;;;;;;;5.85;1.70;;;;;;;9.43;61.14;98300.19;1737471;81;21070;-69
2021/05/06 13:06:10;;;;;;;6.10;1.92;;;;;;;9.48;61.37;98303.34;1739547;81;21016;-69
2021/05/06 13:08:43;;;;;;;13.47;2.63;;;;;;;9.55;61.21;98288.98;1735494;80;22253;-69
2021/05/06 13:11:14;;;;;;;7.78;1.45;;;;;;;9.55;61.05;98303.77;1736661;82;21042;-69
2021/05/06 13:13:52;;;;;;;5.45;1.67;;;;;;;9.56;61.03;98308.89;1735335;82;21010;-69
2021/05/06 13:19:23;;;;;;;6.08;1.80;;;;;;;9.67;61.09;98333.42;1796802;78;22334;-68
2021/05/06 13:21:53;;;;;;;4.20;1.57;;;;;;;9.66;60.84;98326.52;1768037;79;21063;-68
2021/05/06 13:24:21;;;;;;;4.60;1.35;;;;;;;9.60;60.51;98331.19;1764455;80;21328;-68
2021/05/06 13:26:49;;;;;;;4.22;1.87;;;;;;;9.51;60.57;98330.97;1766373;80;21017;-68
2021/05/06 13:29:19;;;;;;;7.92;2.67;;;;;;;9.41;60.47;98328.14;1771368;80;21025;-69
2021/05/06 13:31:48;;;;;;;6.87;2.12;;;;;;;9.32;60.35;98349.55;1767961;79;21021;-69
2021/05/06 13:34:26;;;;;;;6.15;1.67;;;;;;;9.10;60.46;98350.93;1773672;79;21032;-68
2021/05/06 13:37:03;;;;;;;5.47;1.80;;;;;;;8.90;60.44;98335.23;1769317;80;24983;-68
2021/05/06 13:39:31;;;;;;;;;;;;;;;8.83;60.90;98348.75;1773305;80;21025;-69
2021/05/06 13:41:58;;;;;;;6.95;3.22;;;;;;;8.98;61.05;98337.84;1765424;79;20154;-69
2021/05/06 13:44:28;;;;;;;5.58;1.55;;;;;;;9.07;60.90;98345.05;1768312;79;21171;-69
2021/05/06 13:47:02;;;;;;;5.58;1.75;;;;;;;9.17;60.96;98344.38;1768286;79;21183;-69
2021/05/06 13:49:32;;;;;;;6.03;1.85;;;;;;;9.26;60.81;98346.87;1773856;80;21207;-70
2021/05/06 13:52:01;;;;;;;4.83;1.85;;;;;;;9.36;60.60;98343.22;1744914;80;21288;-69
2021/05/06 13:54:29;;;;;;;10.55;2.00;;;;;;;9.29;60.46;98358.86;1772976;79;21212;-69
2021/05/06 13:56:56;;;;;;;6.80;1.80;;;;;;;9.20;60.37;98364.19;1774315;80;21390;-69
2021/05/06 13:59:23;;;;;;;;;;;;;;;9.09;60.29;98349.23;1768062;80;21200;-69
2021/05/06 14:01:55;;;;;;;6.05;2.52;;;;;;;9.05;60.36;98362.09;1765609;80;21210;-69
2021/05/06 14:04:23;;;;;;;8.05;1.62;;;;;;;8.98;60.35;98364.70;1769050;80;21690;-69
2021/05/06 14:07:42;;;;;;;9.03;2.25;;;;;;;8.98;60.36;98352.98;1769813;78;22910;-68
2021/05/06 14:10:11;;;;;;;4.17;1.52;;;;;;;9.01;60.33;98357.99;1747295;80;21145;-68
2021/05/06 14:12:38;;;;;;;8.65;2.22;;;;;;;9.18;60.43;98346.05;1740679;80;21149;-68
2021/05/06 14:15:06;;;;;;;7.62;2.70;;;;;;;9.47;60.63;98343.37;1746879;80;21507;-68
2021/05/06 14:17:33;;;;;;;7.15;2.85;;;;;;;9.64;60.56;98341.80;1744169;80;21129;-68
2021/05/06 14:20:01;;;;;;;8.85;3.30;;;;;;;9.83;60.48;98334.05;1738686;80;21128;-68
2021/05/06 14:22:28;;;;;;;;;;;;;;;9.97;60.36;98331.39;1750356;80;21160;-68
2021/05/06 14:24:55;;;;;;;6.53;1.87;;;;;;;10.15;60.40;98327.17;1743544;80;21910;-68
2021/05/06 14:27:22;;;;;;;5.40;2.22;;;;;;;10.24;59.94;98327.84;1745888;80;21040;-68
2021/05/06 14:29:49;;;;;;;4.25;1.90;;;;;;;10.33;59.68;98327.23;1742717;79;21656;-69
2021/05/06 14:32:16;;;;;;;7.17;2.05;;;;;;;10.18;59.55;98321.74;1744096;80;21652;-71
2021/05/06 14:34:43;;;;;;;4.97;1.60;;;;;;;10.07;59.65;98324.59;1746061;80;21199;-69
2021/05/06 14:37:10;;;;;;;4.28;1.90;;;;;;;9.99;59.01;98326.88;1744028;80;21184;-69
2021/05/06 14:39:37;;;;;;;9.63;3.87;;;;;;;9.96;59.48;98334.91;1741483;80;21237;-69
2021/05/06 14:42:04;;;;;;;7.72;3.47;;;;;;;10.13;59.28;98329.04;1749055;80;21266;-69
2021/05/06 14:44:31;;;;;;;11.68;2.80;;;;;;;10.20;59.20;98339.44;1748459;80;21001;-70
2021/05/06 14:46:58;;;;;;;4.30;1.52;;;;;;;10.19;58.91;98328.62;1746664;80;21242;-69
2021/05/06 14:49:26;;;;;;;5.83;2.30;;;;;;;10.05;58.56;98333.02;1713408;80;21271;-70
2021/05/06 14:51:53;;;;;;;4.92;1.62;;;;;;;9.91;58.72;98339.59;1745611;80;21785;-70
2021/05/06 14:54:20;;;;;;;10.45;1.90;;;;;;;9.84;58.49;98330.53;1750409;80;21178;-69
2021/05/06 14:56:47;;;;;;;4.67;1.65;;;;;;;9.78;58.60;98333.55;1755069;80;21793;-70
2021/05/06 14:59:13;;;;;;;11.38;2.50;;;;;;;9.83;58.69;98336.66;1753638;80;21198;-70
2021/05/06 15:01:40;;;;;;;8.80;2.20;;;;;;;9.92;58.64;98330.86;1753516;80;22174;-71
2021/05/06 15:04:07;;;;;;;5.83;1.98;;;;;;;10.08;58.62;98334.11;1748759;80;21088;-70
2021/05/06 15:06:34;;;;;;;7.08;1.80;;;;;;;10.19;58.30;98327.31;1747793;80;21068;-70
2021/05/06 15:09:05;;;;;;;9.10;2.40;;;;;;;10.17;57.86;98334.43;1744356;80;21013;-70
2021/05/06 15:11:34;;;;;;;5.28;2.10;;;;;;;10.14;57.56;98322.88;1753793;80;20999;-70
2021/05/06 15:14:01;;;;;;;4.62;1.50;;;;;;;10.17;57.84;98324.00;1749116;80;22377;-70
2021/05/06 15:16:28;;;;;;;8.10;2.50;;;;;;;10.11;57.24;98318.73;1748936;80;21626;-70
2021/05/06 15:18:55;;;;;;;8.40;3.22;;;;;;;10.03;57.49;98327.06;1744887;80;21562;-70
2021/05/06 15:21:22;;;;;;;;;;;;;;;9.97;57.51;98320.96;1752456;80;21441;-70
2021/05/06 15:23:49;;;;;;;21.02;9.30;;;;;;;9.99;57.40;98328.19;1744524;80;20295;-70
2021/05/06 15:26:16;;;;;;;6.50;3.40;;;;;;;9.96;57.50;98324.48;1750432;80;21213;-70
2021/05/06 15:28:43;;;;;;;3.60;1.47;;;;;;;9.93;57.31;98326.00;1751415;80;21135;-70
2021/05/06 15:31:11;;;;;;;6.62;1.67;;;;;;;9.78;57.13;98333.55;1735826;80;21151;-70
2021/05/06 15:33:38;;;;;;;3.65;1.15;;;;;;;9.62;57.22;98332.41;1742198;80;21175;-70
2021/05/06 15:36:05;;;;;;;5.08;1.42;;;;;;;9.41;56.78;98338.56;1745373;80;21180;-70
2021/05/06 15:38:32;;;;;;;3.65;1.22;;;;;;;9.19;56.91;98344.30;1745604;80;21207;-69